sensor_id;sensor_type;location;lat;lon;timestamp;P1;durP1;ratioP1;P2;durP2;ratioP2
38182;SDS011;23991;52.430;10.586;2022-12-07T00:01:38;26.23;;;15.60;;
38182;SDS011;23991;52.430;10.586;2022-12-07T00:04:06;23.38;;;14.18;;
38182;SDS011;23991;52.430;10.586;2022-12-07T00:06:38;25.70;;;14.23;;
38182;SDS011;23991;52.430;10.586;2022-12-07T00:09:06;27.65;;;15.55;;
38182;SDS011;23991;52.430;10.586;2022-12-07T00:11:34;28.30;;;15.57;;
38182;SDS011;23991;52.430;10.586;2022-12-07T00:14:02;26.65;;;15.85;;
38182;SDS011;23991;52.430;10.586;2022-12-07T00:16:30;26.60;;;15.68;;
38182;SDS011;23991;52.430;10.586;2022-12-07T00:18:57;26.25;;;15.45;;
38182;SDS011;23991;52.430;10.586;2022-12-07T00:21:33;27.27;;;15.15;;
38182;SDS011;23991;52.430;10.586;2022-12-07T00:24:19;25.60;;;14.75;;
38182;SDS011;23991;52.430;10.586;2022-12-07T00:26:46;32.20;;;15.80;;
38182;SDS011;23991;52.430;10.586;2022-12-07T00:29:16;28.10;;;16.38;;
38182;SDS011;23991;52.430;10.586;2022-12-07T00:31:47;27.40;;;15.82;;
38182;SDS011;23991;52.430;10.586;2022-12-07T00:34:22;25.17;;;15.80;;
38182;SDS011;23991;52.430;10.586;2022-12-07T00:36:49;29.92;;;15.93;;
38182;SDS011;23991;52.430;10.586;2022-12-07T00:39:16;20.17;;;11.60;;
38182;SDS011;23991;52.430;10.586;2022-12-07T00:41:42;26.80;;;15.55;;
38182;SDS011;23991;52.430;10.586;2022-12-07T00:44:08;27.95;;;16.25;;
38182;SDS011;23991;52.430;10.586;2022-12-07T00:46:59;29.13;;;16.55;;
38182;SDS011;23991;52.430;10.586;2022-12-07T00:49:31;27.55;;;16.83;;
38182;SDS011;23991;52.430;10.586;2022-12-07T00:51:57;30.63;;;16.08;;
38182;SDS011;23991;52.430;10.586;2022-12-07T00:54:22;30.08;;;16.48;;
38182;SDS011;23991;52.430;10.586;2022-12-07T00:56:48;34.00;;;17.52;;
38182;SDS011;23991;52.430;10.586;2022-12-07T00:59:13;31.98;;;16.40;;
38182;SDS011;23991;52.430;10.586;2022-12-07T01:01:43;28.70;;;16.17;;
38182;SDS011;23991;52.430;10.586;2022-12-07T01:04:09;38.05;;;18.00;;
38182;SDS011;23991;52.430;10.586;2022-12-07T01:06:34;36.05;;;17.48;;
38182;SDS011;23991;52.430;10.586;2022-12-07T01:09:00;35.08;;;18.33;;
38182;SDS011;23991;52.430;10.586;2022-12-07T01:11:27;32.60;;;18.15;;
38182;SDS011;23991;52.430;10.586;2022-12-07T01:13:54;47.20;;;21.23;;
38182;SDS011;23991;52.430;10.586;2022-12-07T01:16:22;32.88;;;17.75;;
38182;SDS011;23991;52.430;10.586;2022-12-07T01:18:50;39.67;;;18.65;;
38182;SDS011;23991;52.430;10.586;2022-12-07T01:21:21;41.22;;;19.13;;
38182;SDS011;23991;52.430;10.586;2022-12-07T01:23:48;45.58;;;20.17;;
38182;SDS011;23991;52.430;10.586;2022-12-07T01:26:19;43.38;;;21.15;;
38182;SDS011;23991;52.430;10.586;2022-12-07T01:28:46;42.92;;;22.13;;
38182;SDS011;23991;52.430;10.586;2022-12-07T01:31:14;42.38;;;20.70;;
38182;SDS011;23991;52.430;10.586;2022-12-07T01:33:48;50.03;;;21.45;;
38182;SDS011;23991;52.430;10.586;2022-12-07T01:36:22;46.00;;;23.40;;
38182;SDS011;23991;52.430;10.586;2022-12-07T01:38:51;46.85;;;21.52;;
38182;SDS011;23991;52.430;10.586;2022-12-07T01:41:21;45.05;;;21.63;;
38182;SDS011;23991;52.430;10.586;2022-12-07T01:46:53;43.83;;;21.85;;
38182;SDS011;23991;52.430;10.586;2022-12-07T01:49:34;45.58;;;21.52;;
38182;SDS011;23991;52.430;10.586;2022-12-07T01:52:17;46.30;;;21.80;;
38182;SDS011;23991;52.430;10.586;2022-12-07T01:54:44;47.53;;;21.63;;
38182;SDS011;23991;52.430;10.586;2022-12-07T01:57:11;43.97;;;20.95;;
38182;SDS011;23991;52.430;10.586;2022-12-07T01:59:38;45.28;;;22.10;;
38182;SDS011;23991;52.430;10.586;2022-12-07T02:02:06;40.50;;;20.25;;
38182;SDS011;23991;52.430;10.586;2022-12-07T02:04:36;47.88;;;21.70;;
38182;SDS011;23991;52.430;10.586;2022-12-07T02:07:02;46.13;;;22.27;;
38182;SDS011;23991;52.430;10.586;2022-12-07T02:09:29;49.40;;;22.98;;
38182;SDS011;23991;52.430;10.586;2022-12-07T02:11:55;49.90;;;22.15;;
38182;SDS011;23991;52.430;10.586;2022-12-07T02:14:21;46.65;;;22.23;;
38182;SDS011;23991;52.430;10.586;2022-12-07T02:16:53;44.78;;;22.60;;
38182;SDS011;23991;52.430;10.586;2022-12-07T02:19:50;52.95;;;22.73;;
38182;SDS011;23991;52.430;10.586;2022-12-07T02:28:34;52.88;;;23.98;;
38182;SDS011;23991;52.430;10.586;2022-12-07T02:31:08;45.67;;;22.98;;
38182;SDS011;23991;52.430;10.586;2022-12-07T02:33:42;53.58;;;24.27;;
38182;SDS011;23991;52.430;10.586;2022-12-07T02:36:18;47.78;;;22.80;;
38182;SDS011;23991;52.430;10.586;2022-12-07T02:39:01;51.20;;;24.08;;
38182;SDS011;23991;52.430;10.586;2022-12-07T02:44:02;52.20;;;25.52;;
38182;SDS011;23991;52.430;10.586;2022-12-07T02:46:34;53.20;;;24.83;;
38182;SDS011;23991;52.430;10.586;2022-12-07T02:49:04;52.03;;;25.13;;
38182;SDS011;23991;52.430;10.586;2022-12-07T02:51:31;49.28;;;24.77;;
38182;SDS011;23991;52.430;10.586;2022-12-07T02:53:58;49.25;;;24.13;;
38182;SDS011;23991;52.430;10.586;2022-12-07T02:56:41;49.85;;;23.65;;
38182;SDS011;23991;52.430;10.586;2022-12-07T02:59:23;46.88;;;24.05;;
38182;SDS011;23991;52.430;10.586;2022-12-07T03:12:45;44.80;;;21.85;;
38182;SDS011;23991;52.430;10.586;2022-12-07T03:20:49;40.03;;;19.40;;
38182;SDS011;23991;52.430;10.586;2022-12-07T03:23:16;38.92;;;19.83;;
38182;SDS011;23991;52.430;10.586;2022-12-07T03:25:45;37.53;;;19.05;;
38182;SDS011;23991;52.430;10.586;2022-12-07T03:28:14;41.50;;;19.83;;
38182;SDS011;23991;52.430;10.586;2022-12-07T03:33:13;35.58;;;17.45;;
38182;SDS011;23991;52.430;10.586;2022-12-07T03:35:48;35.03;;;17.27;;
38182;SDS011;23991;52.430;10.586;2022-12-07T03:40:58;33.88;;;15.27;;
38182;SDS011;23991;52.430;10.586;2022-12-07T03:43:29;35.15;;;15.68;;
38182;SDS011;23991;52.430;10.586;2022-12-07T03:49:02;29.67;;;15.85;;
38182;SDS011;23991;52.430;10.586;2022-12-07T03:51:33;28.27;;;14.98;;
38182;SDS011;23991;52.430;10.586;2022-12-07T03:54:21;30.10;;;15.30;;
38182;SDS011;23991;52.430;10.586;2022-12-07T03:56:55;25.58;;;13.50;;
38182;SDS011;23991;52.430;10.586;2022-12-07T03:59:22;25.25;;;12.80;;
38182;SDS011;23991;52.430;10.586;2022-12-07T04:01:52;29.30;;;13.27;;
38182;SDS011;23991;52.430;10.586;2022-12-07T04:04:23;27.20;;;12.77;;
38182;SDS011;23991;52.430;10.586;2022-12-07T04:06:50;23.55;;;11.93;;
38182;SDS011;23991;52.430;10.586;2022-12-07T04:09:16;22.73;;;12.13;;
38182;SDS011;23991;52.430;10.586;2022-12-07T04:11:42;21.50;;;11.80;;
38182;SDS011;23991;52.430;10.586;2022-12-07T04:14:08;23.10;;;11.80;;
38182;SDS011;23991;52.430;10.586;2022-12-07T04:16:44;21.30;;;12.43;;
38182;SDS011;23991;52.430;10.586;2022-12-07T04:19:10;21.83;;;11.57;;
38182;SDS011;23991;52.430;10.586;2022-12-07T04:21:36;19.17;;;10.88;;
38182;SDS011;23991;52.430;10.586;2022-12-07T04:24:02;25.98;;;11.82;;
38182;SDS011;23991;52.430;10.586;2022-12-07T04:26:29;24.55;;;11.30;;
38182;SDS011;23991;52.430;10.586;2022-12-07T04:28:54;22.13;;;11.73;;
38182;SDS011;23991;52.430;10.586;2022-12-07T04:31:23;21.35;;;12.27;;
38182;SDS011;23991;52.430;10.586;2022-12-07T04:33:49;22.90;;;11.27;;
38182;SDS011;23991;52.430;10.586;2022-12-07T04:36:14;22.92;;;11.48;;
38182;SDS011;23991;52.430;10.586;2022-12-07T04:38:41;18.60;;;11.13;;
38182;SDS011;23991;52.430;10.586;2022-12-07T04:41:08;24.42;;;11.48;;
38182;SDS011;23991;52.430;10.586;2022-12-07T04:43:36;17.15;;;11.05;;
38182;SDS011;23991;52.430;10.586;2022-12-07T04:46:02;26.55;;;11.23;;
38182;SDS011;23991;52.430;10.586;2022-12-07T04:48:28;25.42;;;11.48;;
38182;SDS011;23991;52.430;10.586;2022-12-07T04:50:54;17.23;;;10.55;;
38182;SDS011;23991;52.430;10.586;2022-12-07T04:53:23;18.90;;;9.85;;
38182;SDS011;23991;52.430;10.586;2022-12-07T04:56:01;18.60;;;10.07;;
38182;SDS011;23991;52.430;10.586;2022-12-07T04:58:26;18.08;;;9.77;;
38182;SDS011;23991;52.430;10.586;2022-12-07T05:00:53;19.52;;;10.93;;
38182;SDS011;23991;52.430;10.586;2022-12-07T05:03:20;21.23;;;10.50;;
38182;SDS011;23991;52.430;10.586;2022-12-07T05:05:45;20.90;;;10.27;;
38182;SDS011;23991;52.430;10.586;2022-12-07T05:08:11;19.20;;;10.00;;
38182;SDS011;23991;52.430;10.586;2022-12-07T05:10:37;15.55;;;8.85;;
38182;SDS011;23991;52.430;10.586;2022-12-07T05:13:02;17.60;;;9.20;;
38182;SDS011;23991;52.430;10.586;2022-12-07T05:15:28;20.08;;;9.68;;
38182;SDS011;23991;52.430;10.586;2022-12-07T05:17:55;15.93;;;8.95;;
38182;SDS011;23991;52.430;10.586;2022-12-07T05:20:20;15.98;;;8.95;;
38182;SDS011;23991;52.430;10.586;2022-12-07T05:22:46;19.50;;;9.23;;
38182;SDS011;23991;52.430;10.586;2022-12-07T05:25:12;16.92;;;9.00;;
38182;SDS011;23991;52.430;10.586;2022-12-07T05:27:37;19.20;;;9.82;;
38182;SDS011;23991;52.430;10.586;2022-12-07T05:30:04;18.45;;;9.98;;
38182;SDS011;23991;52.430;10.586;2022-12-07T05:32:30;16.98;;;8.55;;
38182;SDS011;23991;52.430;10.586;2022-12-07T05:34:58;22.10;;;9.02;;
38182;SDS011;23991;52.430;10.586;2022-12-07T05:37:24;17.55;;;8.93;;
38182;SDS011;23991;52.430;10.586;2022-12-07T05:39:49;18.15;;;10.25;;
38182;SDS011;23991;52.430;10.586;2022-12-07T05:42:15;14.55;;;8.65;;
38182;SDS011;23991;52.430;10.586;2022-12-07T05:44:42;14.70;;;8.40;;
38182;SDS011;23991;52.430;10.586;2022-12-07T05:47:10;17.38;;;8.70;;
38182;SDS011;23991;52.430;10.586;2022-12-07T05:49:36;15.45;;;8.63;;
38182;SDS011;23991;52.430;10.586;2022-12-07T05:52:05;15.38;;;8.63;;
38182;SDS011;23991;52.430;10.586;2022-12-07T05:54:31;20.03;;;8.83;;
38182;SDS011;23991;52.430;10.586;2022-12-07T05:56:57;19.05;;;10.05;;
38182;SDS011;23991;52.430;10.586;2022-12-07T05:59:23;17.05;;;10.15;;
38182;SDS011;23991;52.430;10.586;2022-12-07T06:01:59;17.40;;;8.27;;
38182;SDS011;23991;52.430;10.586;2022-12-07T06:04:28;19.67;;;8.80;;
38182;SDS011;23991;52.430;10.586;2022-12-07T06:06:56;15.68;;;7.80;;
38182;SDS011;23991;52.430;10.586;2022-12-07T06:09:22;17.60;;;8.25;;
38182;SDS011;23991;52.430;10.586;2022-12-07T06:11:49;18.50;;;8.65;;
38182;SDS011;23991;52.430;10.586;2022-12-07T06:14:34;17.85;;;8.13;;
38182;SDS011;23991;52.430;10.586;2022-12-07T06:17:00;16.25;;;8.65;;
38182;SDS011;23991;52.430;10.586;2022-12-07T06:19:26;16.23;;;8.52;;
38182;SDS011;23991;52.430;10.586;2022-12-07T06:21:52;14.93;;;8.48;;
38182;SDS011;23991;52.430;10.586;2022-12-07T06:24:22;16.00;;;8.63;;
38182;SDS011;23991;52.430;10.586;2022-12-07T06:26:51;13.70;;;7.65;;
38182;SDS011;23991;52.430;10.586;2022-12-07T06:29:19;13.85;;;8.23;;
38182;SDS011;23991;52.430;10.586;2022-12-07T06:31:45;17.38;;;8.35;;
38182;SDS011;23991;52.430;10.586;2022-12-07T06:34:18;18.77;;;8.32;;
38182;SDS011;23991;52.430;10.586;2022-12-07T06:36:50;18.00;;;7.88;;
38182;SDS011;23991;52.430;10.586;2022-12-07T06:39:23;17.35;;;8.05;;
38182;SDS011;23991;52.430;10.586;2022-12-07T06:41:51;16.02;;;7.95;;
38182;SDS011;23991;52.430;10.586;2022-12-07T06:44:18;13.88;;;8.23;;
38182;SDS011;23991;52.430;10.586;2022-12-07T06:46:45;14.18;;;7.32;;
38182;SDS011;23991;52.430;10.586;2022-12-07T06:49:10;11.80;;;7.25;;
38182;SDS011;23991;52.430;10.586;2022-12-07T06:51:36;14.15;;;7.72;;
38182;SDS011;23991;52.430;10.586;2022-12-07T06:54:05;15.82;;;6.85;;
38182;SDS011;23991;52.430;10.586;2022-12-07T06:56:36;11.02;;;6.07;;
38182;SDS011;23991;52.430;10.586;2022-12-07T06:59:02;9.23;;;6.00;;
38182;SDS011;23991;52.430;10.586;2022-12-07T07:01:30;11.27;;;4.97;;
38182;SDS011;23991;52.430;10.586;2022-12-07T07:03:56;11.00;;;5.20;;
38182;SDS011;23991;52.430;10.586;2022-12-07T07:06:24;10.43;;;5.40;;
38182;SDS011;23991;52.430;10.586;2022-12-07T07:08:50;10.40;;;6.22;;
38182;SDS011;23991;52.430;10.586;2022-12-07T07:11:16;10.80;;;5.63;;
38182;SDS011;23991;52.430;10.586;2022-12-07T07:13:42;12.80;;;6.07;;
38182;SDS011;23991;52.430;10.586;2022-12-07T07:16:07;12.70;;;5.70;;
38182;SDS011;23991;52.430;10.586;2022-12-07T07:18:33;11.95;;;5.57;;
38182;SDS011;23991;52.430;10.586;2022-12-07T07:20:59;9.30;;;5.90;;
38182;SDS011;23991;52.430;10.586;2022-12-07T07:23:26;8.70;;;5.30;;
38182;SDS011;23991;52.430;10.586;2022-12-07T07:25:53;12.35;;;5.90;;
38182;SDS011;23991;52.430;10.586;2022-12-07T07:28:21;9.15;;;5.80;;
38182;SDS011;23991;52.430;10.586;2022-12-07T07:30:47;11.43;;;5.78;;
38182;SDS011;23991;52.430;10.586;2022-12-07T07:33:14;11.07;;;6.07;;
38182;SDS011;23991;52.430;10.586;2022-12-07T07:35:41;11.05;;;6.05;;
38182;SDS011;23991;52.430;10.586;2022-12-07T07:38:07;10.55;;;5.97;;
38182;SDS011;23991;52.430;10.586;2022-12-07T07:40:33;7.72;;;5.18;;
38182;SDS011;23991;52.430;10.586;2022-12-07T07:43:00;8.95;;;5.78;;
38182;SDS011;23991;52.430;10.586;2022-12-07T07:45:26;9.80;;;5.70;;
38182;SDS011;23991;52.430;10.586;2022-12-07T07:47:52;10.13;;;5.75;;
38182;SDS011;23991;52.430;10.586;2022-12-07T07:50:19;10.95;;;5.75;;
38182;SDS011;23991;52.430;10.586;2022-12-07T07:52:47;11.43;;;6.47;;
38182;SDS011;23991;52.430;10.586;2022-12-07T07:55:13;12.48;;;6.30;;
38182;SDS011;23991;52.430;10.586;2022-12-07T07:57:39;11.95;;;6.57;;
38182;SDS011;23991;52.430;10.586;2022-12-07T08:00:12;11.77;;;6.35;;
38182;SDS011;23991;52.430;10.586;2022-12-07T08:02:39;10.55;;;6.95;;
38182;SDS011;23991;52.430;10.586;2022-12-07T08:05:06;12.70;;;6.20;;
38182;SDS011;23991;52.430;10.586;2022-12-07T08:07:32;12.82;;;6.70;;
38182;SDS011;23991;52.430;10.586;2022-12-07T08:09:57;11.48;;;6.60;;
38182;SDS011;23991;52.430;10.586;2022-12-07T08:12:23;12.50;;;5.65;;
38182;SDS011;23991;52.430;10.586;2022-12-07T08:14:55;11.52;;;6.35;;
38182;SDS011;23991;52.430;10.586;2022-12-07T08:17:30;10.50;;;6.07;;
38182;SDS011;23991;52.430;10.586;2022-12-07T08:20:01;12.15;;;6.20;;
38182;SDS011;23991;52.430;10.586;2022-12-07T08:22:27;14.67;;;7.60;;
38182;SDS011;23991;52.430;10.586;2022-12-07T08:24:53;15.13;;;5.75;;
38182;SDS011;23991;52.430;10.586;2022-12-07T08:27:18;8.05;;;4.80;;
38182;SDS011;23991;52.430;10.586;2022-12-07T08:29:44;11.32;;;5.38;;
38182;SDS011;23991;52.430;10.586;2022-12-07T08:32:10;10.85;;;5.70;;
38182;SDS011;23991;52.430;10.586;2022-12-07T08:34:38;10.35;;;5.53;;
38182;SDS011;23991;52.430;10.586;2022-12-07T08:37:05;11.73;;;5.47;;
38182;SDS011;23991;52.430;10.586;2022-12-07T08:39:33;13.25;;;5.50;;
38182;SDS011;23991;52.430;10.586;2022-12-07T08:41:59;11.27;;;5.47;;
38182;SDS011;23991;52.430;10.586;2022-12-07T08:44:25;8.18;;;6.13;;
38182;SDS011;23991;52.430;10.586;2022-12-07T08:46:56;11.82;;;4.10;;
38182;SDS011;23991;52.430;10.586;2022-12-07T08:49:27;9.25;;;5.13;;
38182;SDS011;23991;52.430;10.586;2022-12-07T08:51:57;10.18;;;4.72;;
38182;SDS011;23991;52.430;10.586;2022-12-07T08:54:23;11.70;;;5.15;;
38182;SDS011;23991;52.430;10.586;2022-12-07T08:56:49;8.65;;;4.85;;
38182;SDS011;23991;52.430;10.586;2022-12-07T08:59:17;11.95;;;4.72;;
38182;SDS011;23991;52.430;10.586;2022-12-07T09:01:44;7.95;;;4.72;;
38182;SDS011;23991;52.430;10.586;2022-12-07T09:04:09;10.77;;;4.95;;
38182;SDS011;23991;52.430;10.586;2022-12-07T09:06:36;8.90;;;4.75;;
38182;SDS011;23991;52.430;10.586;2022-12-07T09:09:02;12.48;;;5.93;;
38182;SDS011;23991;52.430;10.586;2022-12-07T09:11:28;10.60;;;4.82;;
38182;SDS011;23991;52.430;10.586;2022-12-07T09:13:53;12.10;;;5.93;;
38182;SDS011;23991;52.430;10.586;2022-12-07T09:16:19;6.22;;;4.35;;
38182;SDS011;23991;52.430;10.586;2022-12-07T09:18:45;8.32;;;4.43;;
38182;SDS011;23991;52.430;10.586;2022-12-07T09:21:11;8.77;;;4.32;;
38182;SDS011;23991;52.430;10.586;2022-12-07T09:23:36;8.38;;;4.78;;
38182;SDS011;23991;52.430;10.586;2022-12-07T09:26:03;7.75;;;4.30;;
38182;SDS011;23991;52.430;10.586;2022-12-07T09:28:33;7.22;;;3.83;;
38182;SDS011;23991;52.430;10.586;2022-12-07T09:30:58;10.05;;;3.80;;
38182;SDS011;23991;52.430;10.586;2022-12-07T09:33:24;11.05;;;3.78;;
38182;SDS011;23991;52.430;10.586;2022-12-07T09:35:51;8.25;;;3.58;;
38182;SDS011;23991;52.430;10.586;2022-12-07T09:38:17;4.60;;;3.05;;
38182;SDS011;23991;52.430;10.586;2022-12-07T09:40:44;6.30;;;3.45;;
38182;SDS011;23991;52.430;10.586;2022-12-07T09:43:13;5.75;;;2.67;;
38182;SDS011;23991;52.430;10.586;2022-12-07T09:45:44;9.23;;;2.70;;
38182;SDS011;23991;52.430;10.586;2022-12-07T09:48:15;8.00;;;3.35;;
38182;SDS011;23991;52.430;10.586;2022-12-07T09:50:46;6.53;;;2.90;;
38182;SDS011;23991;52.430;10.586;2022-12-07T09:53:27;5.70;;;2.80;;
38182;SDS011;23991;52.430;10.586;2022-12-07T09:55:53;6.40;;;3.20;;
38182;SDS011;23991;52.430;10.586;2022-12-07T09:58:29;5.20;;;2.92;;
38182;SDS011;23991;52.430;10.586;2022-12-07T10:00:59;4.93;;;3.42;;
38182;SDS011;23991;52.430;10.586;2022-12-07T10:03:34;6.07;;;3.42;;
38182;SDS011;23991;52.430;10.586;2022-12-07T10:06:03;8.95;;;3.17;;
38182;SDS011;23991;52.430;10.586;2022-12-07T10:08:30;5.68;;;2.90;;
38182;SDS011;23991;52.430;10.586;2022-12-07T10:10:57;6.88;;;2.85;;
38182;SDS011;23991;52.430;10.586;2022-12-07T10:13:37;8.80;;;3.03;;
38182;SDS011;23991;52.430;10.586;2022-12-07T10:16:03;6.60;;;3.03;;
38182;SDS011;23991;52.430;10.586;2022-12-07T10:18:33;7.97;;;3.15;;
38182;SDS011;23991;52.430;10.586;2022-12-07T10:23:39;7.72;;;2.92;;
38182;SDS011;23991;52.430;10.586;2022-12-07T10:26:28;4.97;;;2.45;;
38182;SDS011;23991;52.430;10.586;2022-12-07T10:29:47;7.57;;;2.70;;
38182;SDS011;23991;52.430;10.586;2022-12-07T10:31:50;4.78;;;2.35;;
38182;SDS011;23991;52.430;10.586;2022-12-07T10:34:35;9.73;;;2.65;;
38182;SDS011;23991;52.430;10.586;2022-12-07T10:39:50;11.07;;;2.55;;
38182;SDS011;23991;52.430;10.586;2022-12-07T10:50:58;5.40;;;1.90;;
38182;SDS011;23991;52.430;10.586;2022-12-07T10:53:36;5.40;;;1.98;;
38182;SDS011;23991;52.430;10.586;2022-12-07T11:07:50;4.78;;;2.00;;
38182;SDS011;23991;52.430;10.586;2022-12-07T11:10:56;4.93;;;1.95;;
38182;SDS011;23991;52.430;10.586;2022-12-07T11:13:55;6.65;;;1.52;;
38182;SDS011;23991;52.430;10.586;2022-12-07T11:16:29;3.13;;;1.38;;
38182;SDS011;23991;52.430;10.586;2022-12-07T11:19:26;5.40;;;1.52;;
38182;SDS011;23991;52.430;10.586;2022-12-07T11:22:17;3.50;;;1.30;;
38182;SDS011;23991;52.430;10.586;2022-12-07T11:25:01;4.38;;;1.65;;
38182;SDS011;23991;52.430;10.586;2022-12-07T11:35:30;6.32;;;1.80;;
38182;SDS011;23991;52.430;10.586;2022-12-07T11:37:59;6.97;;;2.55;;
38182;SDS011;23991;52.430;10.586;2022-12-07T11:40:34;4.88;;;1.92;;
38182;SDS011;23991;52.430;10.586;2022-12-07T11:43:03;7.10;;;2.20;;
38182;SDS011;23991;52.430;10.586;2022-12-07T11:45:40;5.38;;;2.60;;
38182;SDS011;23991;52.430;10.586;2022-12-07T11:50:48;7.13;;;3.13;;
38182;SDS011;23991;52.430;10.586;2022-12-07T11:53:20;7.97;;;2.85;;
38182;SDS011;23991;52.430;10.586;2022-12-07T12:03:45;5.43;;;1.90;;
38182;SDS011;23991;52.430;10.586;2022-12-07T12:06:12;3.85;;;1.63;;
38182;SDS011;23991;52.430;10.586;2022-12-07T12:08:43;4.15;;;1.65;;
38182;SDS011;23991;52.430;10.586;2022-12-07T12:19:59;3.65;;;1.45;;
38182;SDS011;23991;52.430;10.586;2022-12-07T12:22:41;5.28;;;1.58;;
38182;SDS011;23991;52.430;10.586;2022-12-07T12:26:03;3.17;;;1.83;;
38182;SDS011;23991;52.430;10.586;2022-12-07T12:28:28;8.32;;;1.60;;
38182;SDS011;23991;52.430;10.586;2022-12-07T12:31:06;7.85;;;1.80;;
38182;SDS011;23991;52.430;10.586;2022-12-07T12:33:36;2.47;;;1.40;;
38182;SDS011;23991;52.430;10.586;2022-12-07T12:46:55;4.18;;;1.50;;
38182;SDS011;23991;52.430;10.586;2022-12-07T12:51:57;7.05;;;1.55;;
38182;SDS011;23991;52.430;10.586;2022-12-07T12:54:27;4.70;;;1.48;;
38182;SDS011;23991;52.430;10.586;2022-12-07T12:57:25;4.25;;;1.25;;
38182;SDS011;23991;52.430;10.586;2022-12-07T12:59:57;5.18;;;1.33;;
38182;SDS011;23991;52.430;10.586;2022-12-07T13:10:27;2.70;;;1.27;;
38182;SDS011;23991;52.430;10.586;2022-12-07T13:26:20;4.38;;;1.50;;
38182;SDS011;23991;52.430;10.586;2022-12-07T13:29:15;4.88;;;1.60;;
38182;SDS011;23991;52.430;10.586;2022-12-07T13:34:35;3.17;;;1.20;;
38182;SDS011;23991;52.430;10.586;2022-12-07T13:39:49;6.13;;;1.33;;
38182;SDS011;23991;52.430;10.586;2022-12-07T13:42:23;3.90;;;1.42;;
38182;SDS011;23991;52.430;10.586;2022-12-07T13:44:54;4.78;;;1.50;;
38182;SDS011;23991;52.430;10.586;2022-12-07T13:47:41;5.47;;;1.73;;
38182;SDS011;23991;52.430;10.586;2022-12-07T13:50:23;4.32;;;1.60;;
38182;SDS011;23991;52.430;10.586;2022-12-07T13:52:54;6.30;;;1.70;;
38182;SDS011;23991;52.430;10.586;2022-12-07T13:55:21;4.75;;;1.52;;
38182;SDS011;23991;52.430;10.586;2022-12-07T13:57:47;5.93;;;1.73;;
38182;SDS011;23991;52.430;10.586;2022-12-07T14:00:16;6.18;;;1.80;;
38182;SDS011;23991;52.430;10.586;2022-12-07T14:05:27;3.30;;;1.80;;
38182;SDS011;23991;52.430;10.586;2022-12-07T14:07:58;5.38;;;2.45;;
38182;SDS011;23991;52.430;10.586;2022-12-07T14:12:59;8.30;;;2.72;;
38182;SDS011;23991;52.430;10.586;2022-12-07T14:15:29;5.43;;;2.63;;
38182;SDS011;23991;52.430;10.586;2022-12-07T14:17:58;5.80;;;2.60;;
38182;SDS011;23991;52.430;10.586;2022-12-07T14:22:58;4.05;;;1.67;;
38182;SDS011;23991;52.430;10.586;2022-12-07T14:25:27;9.75;;;2.40;;
38182;SDS011;23991;52.430;10.586;2022-12-07T14:27:57;5.57;;;2.35;;
38182;SDS011;23991;52.430;10.586;2022-12-07T14:30:27;5.88;;;2.00;;
38182;SDS011;23991;52.430;10.586;2022-12-07T14:32:57;6.88;;;1.75;;
38182;SDS011;23991;52.430;10.586;2022-12-07T14:35:27;6.15;;;1.40;;
38182;SDS011;23991;52.430;10.586;2022-12-07T14:37:53;4.45;;;1.30;;
38182;SDS011;23991;52.430;10.586;2022-12-07T14:40:23;3.83;;;1.23;;
38182;SDS011;23991;52.430;10.586;2022-12-07T14:42:51;3.45;;;1.38;;
38182;SDS011;23991;52.430;10.586;2022-12-07T14:45:28;3.42;;;1.50;;
38182;SDS011;23991;52.430;10.586;2022-12-07T14:47:56;5.88;;;1.63;;
38182;SDS011;23991;52.430;10.586;2022-12-07T14:50:21;5.53;;;1.60;;
38182;SDS011;23991;52.430;10.586;2022-12-07T14:52:50;4.78;;;1.30;;
38182;SDS011;23991;52.430;10.586;2022-12-07T14:55:30;5.43;;;1.35;;
38182;SDS011;23991;52.430;10.586;2022-12-07T14:57:56;6.03;;;1.52;;
38182;SDS011;23991;52.430;10.586;2022-12-07T15:00:24;4.65;;;1.50;;
38182;SDS011;23991;52.430;10.586;2022-12-07T15:02:51;8.73;;;2.70;;
38182;SDS011;23991;52.430;10.586;2022-12-07T15:05:17;5.88;;;2.30;;
38182;SDS011;23991;52.430;10.586;2022-12-07T15:07:44;4.47;;;1.67;;
38182;SDS011;23991;52.430;10.586;2022-12-07T15:10:13;4.68;;;2.10;;
38182;SDS011;23991;52.430;10.586;2022-12-07T15:12:44;5.32;;;2.08;;
38182;SDS011;23991;52.430;10.586;2022-12-07T15:15:10;8.25;;;2.25;;
38182;SDS011;23991;52.430;10.586;2022-12-07T15:17:36;6.70;;;2.70;;
38182;SDS011;23991;52.430;10.586;2022-12-07T15:20:02;5.32;;;2.78;;
38182;SDS011;23991;52.430;10.586;2022-12-07T15:22:28;9.25;;;2.92;;
38182;SDS011;23991;52.430;10.586;2022-12-07T15:24:56;11.45;;;2.83;;
38182;SDS011;23991;52.430;10.586;2022-12-07T15:27:22;7.45;;;2.53;;
38182;SDS011;23991;52.430;10.586;2022-12-07T15:29:47;5.75;;;2.15;;
38182;SDS011;23991;52.430;10.586;2022-12-07T15:32:13;10.02;;;3.08;;
38182;SDS011;23991;52.430;10.586;2022-12-07T15:34:39;9.45;;;3.63;;
38182;SDS011;23991;52.430;10.586;2022-12-07T15:37:04;5.72;;;2.90;;
38182;SDS011;23991;52.430;10.586;2022-12-07T15:39:31;16.00;;;4.85;;
38182;SDS011;23991;52.430;10.586;2022-12-07T15:42:00;20.05;;;7.18;;
38182;SDS011;23991;52.430;10.586;2022-12-07T15:44:25;17.90;;;6.97;;
38182;SDS011;23991;52.430;10.586;2022-12-07T15:47:09;7.78;;;3.65;;
38182;SDS011;23991;52.430;10.586;2022-12-07T15:49:35;6.82;;;3.15;;
38182;SDS011;23991;52.430;10.586;2022-12-07T15:52:00;6.30;;;3.13;;
38182;SDS011;23991;52.430;10.586;2022-12-07T15:54:27;6.55;;;3.03;;
38182;SDS011;23991;52.430;10.586;2022-12-07T15:56:54;7.60;;;2.38;;
38182;SDS011;23991;52.430;10.586;2022-12-07T15:59:20;5.63;;;2.50;;
38182;SDS011;23991;52.430;10.586;2022-12-07T16:01:46;5.28;;;2.53;;
38182;SDS011;23991;52.430;10.586;2022-12-07T16:04:13;6.07;;;2.60;;
38182;SDS011;23991;52.430;10.586;2022-12-07T16:06:39;7.82;;;2.90;;
38182;SDS011;23991;52.430;10.586;2022-12-07T16:09:07;4.63;;;2.63;;
38182;SDS011;23991;52.430;10.586;2022-12-07T16:11:33;10.45;;;4.03;;
38182;SDS011;23991;52.430;10.586;2022-12-07T16:14:00;10.02;;;4.78;;
38182;SDS011;23991;52.430;10.586;2022-12-07T16:16:29;9.15;;;3.92;;
38182;SDS011;23991;52.430;10.586;2022-12-07T16:18:55;14.10;;;5.75;;
38182;SDS011;23991;52.430;10.586;2022-12-07T16:21:21;7.20;;;3.83;;
38182;SDS011;23991;52.430;10.586;2022-12-07T16:23:46;7.53;;;3.38;;
38182;SDS011;23991;52.430;10.586;2022-12-07T16:26:13;8.32;;;2.92;;
38182;SDS011;23991;52.430;10.586;2022-12-07T16:28:41;4.90;;;2.58;;
38182;SDS011;23991;52.430;10.586;2022-12-07T16:31:08;3.20;;;2.00;;
38182;SDS011;23991;52.430;10.586;2022-12-07T16:33:40;3.67;;;1.85;;
38182;SDS011;23991;52.430;10.586;2022-12-07T16:36:08;2.38;;;1.40;;
38182;SDS011;23991;52.430;10.586;2022-12-07T16:38:35;4.25;;;1.77;;
38182;SDS011;23991;52.430;10.586;2022-12-07T16:41:04;6.70;;;1.75;;
38182;SDS011;23991;52.430;10.586;2022-12-07T16:43:31;2.42;;;1.40;;
38182;SDS011;23991;52.430;10.586;2022-12-07T16:46:00;3.58;;;1.45;;
38182;SDS011;23991;52.430;10.586;2022-12-07T16:48:27;4.30;;;1.38;;
38182;SDS011;23991;52.430;10.586;2022-12-07T16:50:52;3.72;;;1.70;;
38182;SDS011;23991;52.430;10.586;2022-12-07T16:53:22;4.90;;;2.30;;
38182;SDS011;23991;52.430;10.586;2022-12-07T16:55:48;5.30;;;2.22;;